Latest Coastal Weather Observations for Swanbourne

IDW60701

Issued at 8:12 am WST Sunday 5 July 2015 (issued every 10 minutes, with the page automatically refreshed every 10 minutes)

About coastal observations | Map of coastal stations | Coastal observations for WA | Marine services | Other Formats
Station Details ID: 009215 Name: SWANBOURNE Lat: -31.96 Lon: 115.76 Height: 40.96 m
Data from the previous 72 hours. | See also: Recent months at Swanbourne
Date/Time
WST
Temp

°C
Wind Pressure Rain
since 9am
mm
Weather Cloud Vis
km
Sea
Height
m
Swell
Dir
 
Speed
knots
Gust
knots
hPa Trend Height
m
Period
s
Dir
05/08:00am 12.4 ENE 4 5 - - 3.4 - - - - - - -
05/07:30am 12.2 NE 4 5 - - 3.4 - - - - - - -
05/07:00am 11.4 ENE 5 6 - - 3.4 - - - - - - -
05/06:30am 11.3 ENE 5 6 - - 3.4 - - - - - - -
05/06:00am 12.3 E 4 5 - - 3.4 - - - - - - -
05/05:30am 12.8 ENE 4 5 - - 3.4 - - - - - - -
05/05:00am 13.1 S 2 4 - - 3.4 - - - - - - -
05/04:30am 13.0 SSE 2 4 - - 3.4 - - - - - - -
05/04:00am 13.4 SE 2 5 - - 3.4 - - - - - - -
05/03:30am 13.7 ESE 2 4 - - 3.4 - - - - - - -
05/03:00am 14.1 ESE 3 5 - - 3.4 - - - - - - -
05/02:30am 14.4 E 3 4 - - 3.4 - - - - - - -
05/02:00am 14.6 E 3 4 - - 3.4 - - - - - - -
05/01:30am 14.9 E 3 5 - - 3.4 - - - - - - -
05/01:00am 14.8 ENE 1 4 - - 3.4 - - - - - - -
05/12:30am 14.8 NE 2 3 - - 3.0 - - - - - - -
05/12:00am 15.2 NE 2 3 - - 3.0 - - - - - - -
 
Date/Time
WST
Temp

°C
Wind Pressure Rain
since 9am
mm
Weather Cloud Vis
km
Sea
Height
m
Swell
Dir
 
Speed
knots
Gust
knots
hPa Trend Height
m
Period
s
Dir
04/11:30pm 15.5 E 1 2 - - 3.0 - - - - - - -
04/11:00pm 15.9 SSW 3 5 - - 3.0 - - - - - - -
04/10:30pm 15.8 W 7 11 - - 2.8 - - - - - - -
04/10:00pm 15.9 WSW 3 5 - - 2.8 - - - - - - -
04/09:30pm 16.2 WSW 6 9 - - 2.8 - - - - - - -
04/09:00pm 15.8 WSW 6 8 - - 2.8 - - - - - - -
04/08:30pm 15.3 WSW 3 4 - - 2.8 - - - - - - -
04/08:00pm 15.7 W 8 11 - - 2.8 - - - - - - -
04/07:30pm 15.6 W 13 20 - - 2.8 - - - - - - -
04/07:17pm 16.3 W 9 19 - - 2.6 - - - - - - -
04/07:00pm 16.4 WSW 4 6 - - 2.6 - - - - - - -
04/06:30pm 16.3 W 5 9 - - 2.6 - - - - - - -
04/06:00pm 16.0 W 6 8 - - 2.6 Recent precip. - - - - - -
04/05:30pm 16.7 WNW 2 4 - - 2.6 - - - - - - -
04/05:00pm 16.7 NNW 3 4 - - 2.2 - - - - - - -
04/04:30pm 17.5 NNW 3 6 - - 2.2 - - - - - - -
04/04:00pm 16.6 NW 8 13 - - 2.2 - - - - - - -
04/03:30pm 16.5 WNW 9 13 - - 2.2 - - - - - - -
04/03:00pm 17.5 WSW 8 13 - - 2.2 Recent precip. - - - - - -
04/02:30pm 17.2 WNW 4 7 - - 2.2 - - - - - - -
04/02:00pm 17.7 WNW 11 17 - - 0.4 - - - - - - -
04/01:30pm 21.4 WNW 8 11 - - 0.0 - - - - - - -
04/01:00pm 21.1 NW 6 9 - - 0.0 - - - - - - -
04/12:30pm 20.1 NNW 6 9 - - 0.0 - - - - - - -
04/12:00pm 19.0 NNW 5 7 - - 0.0 - - - - - - -
04/11:30am 18.5 NNW 5 7 - - 0.0 - - - - - - -
04/11:00am 18.4 NW 3 5 - - 0.0 - - - - - - -
04/10:30am 18.2 N 4 6 - - 0.0 - - - - - - -
04/10:00am 16.2 NNE 3 5 - - 0.0 - - - - - - -
04/09:30am 15.5 ENE 1 3 - - 0.0 - - - - - - -
04/09:00am 14.5 ENE 3 4 - - 1.4 - - - - - - -
04/08:30am 13.4 ENE 3 5 - - 1.4 - - - - - - -
04/08:00am 12.2 ENE 5 6 - - 1.4 - - - - - - -
04/07:30am 11.7 ENE 4 5 - - 1.4 - - - - - - -
04/07:00am 11.8 NE 4 5 - - 1.4 - - - - - - -
04/06:30am 11.4 ENE 5 6 - - 0.8 - - - - - - -
04/06:00am 11.5 ENE 5 6 - - 0.8 - - - - - - -
04/05:30am 11.4 ENE 4 6 - - 0.8 - - - - - - -
04/05:00am 11.7 ENE 5 6 - - 0.8 - - - - - - -
04/04:30am 11.4 ENE 5 6 - - 0.8 - - - - - - -
04/04:00am 11.1 ENE 5 6 - - 0.8 - - - - - - -
04/03:30am 11.2 ENE 5 6 - - 0.8 - - - - - - -
04/03:00am 11.9 ENE 5 6 - - 0.8 Recent precip. - - - - - -
04/02:30am 12.3 ENE 5 5 - - 0.8 - - - - - - -
04/02:00am 12.8 ENE 5 6 - - 0.6 - - - - - - -
04/01:30am 13.0 ENE 5 5 - - 0.6 - - - - - - -
04/01:00am 13.7 ENE 4 5 - - 0.6 - - - - - - -
04/12:30am 14.3 NE 3 4 - - 0.6 - - - - - - -
04/12:00am 14.8 ENE 3 3 - - 0.6 - - - - - - -
 
Date/Time
WST
Temp

°C
Wind Pressure Rain
since 9am
mm
Weather Cloud Vis
km
Sea
Height
m
Swell
Dir
 
Speed
knots
Gust
knots
hPa Trend Height
m
Period
s
Dir
03/11:30pm 15.1 ENE 3 4 - - 0.6 - - - - - - -
03/11:00pm 15.3 ENE 3 3 - - 0.6 - - - - - - -
03/10:30pm 15.5 CALM 0 0 - - 0.6 - - - - - - -
03/10:00pm 15.5 CALM 0 0 - - 0.6 - - - - - - -
03/09:30pm 15.6 CALM 0 0 - - 0.6 - - - - - - -
03/09:00pm 15.9 S 1 1 - - 0.6 - - - - - - -
03/08:30pm 15.7 S 2 2 - - 0.6 - - - - - - -
03/08:00pm 15.8 S 2 2 - - 0.6 - - - - - - -
03/07:30pm 15.8 SSE 2 2 - - 0.6 - - - - - - -
03/07:00pm 16.2 SSW 2 3 - - 0.6 - - - - - - -
03/06:30pm 16.6 SW 2 4 - - 0.6 - - - - - - -
03/06:00pm 17.2 W 2 2 - - 0.6 - - - - - - -
03/05:30pm 17.7 W 2 3 - - 0.6 - - - - - - -
03/05:00pm 18.8 WNW 2 4 - - 0.6 - - - - - - -
03/04:30pm 19.7 W 4 5 - - 0.6 - - - - - - -
03/04:00pm 20.4 WNW 3 5 - - 0.6 - - - - - - -
03/03:30pm 20.5 W 4 5 - - 0.6 - - - - - - -
03/03:00pm 20.9 WNW 4 6 - - 0.6 - - - - - - -
03/02:30pm 20.9 W 4 5 - - 0.6 - - - - - - -
03/02:00pm 21.0 WNW 4 5 - - 0.6 - - - - - - -
03/01:30pm 20.4 W 3 5 - - 0.6 - - - - - - -
03/01:00pm 21.0 WNW 3 4 - - 0.6 - - - - - - -
03/12:30pm 20.1 NW 4 6 - - 0.6 - - - - - - -
03/12:00pm 19.6 NW 3 5 - - 0.6 Recent precip. - - - - - -
03/11:30am 19.4 NNW 5 7 - - 0.2 - - - - - - -
03/11:00am 18.1 NW 3 6 - - 0.2 - - - - - - -
03/10:30am 18.5 ENE 1 2 - - 0.2 - - - - - - -
03/10:00am 17.9 N 1 3 - - 0.2 - - - - - - -
03/09:30am 17.5 N 3 4 - - 0.2 - - - - - - -
03/09:00am 15.8 ENE 3 4 - - 6.0 - - - - - - -
03/08:30am 14.4 NNE 4 4 - - 6.0 - - - - - - -
03/08:00am 14.0 ENE 3 4 - - 6.0 - - - - - - -
03/07:30am 13.9 ENE 4 5 - - 6.0 - - - - - - -
03/07:00am 13.6 NE 3 4 - - 4.0 - - - - - - -
03/06:30am 14.2 N 4 5 - - 4.0 - - - - - - -
03/06:00am 14.9 N 5 6 - - 4.0 - - - - - - -
03/05:30am 14.6 N 5 6 - - 4.0 - - - - - - -
03/05:00am 15.1 N 5 6 - - 4.0 - - - - - - -
03/04:30am 15.3 N 5 6 - - 4.0 - - - - - - -
03/04:00am 15.5 N 6 7 - - 4.0 - - - - - - -
03/03:30am 15.4 N 5 7 - - 2.0 - - - - - - -
03/03:00am 14.2 NE 4 6 - - 2.0 - - - - - - -
03/02:30am 13.7 NE 5 7 - - 2.0 - - - - - - -
03/02:00am 13.7 ENE 5 7 - - 2.0 - - - - - - -
03/01:30am 13.8 ENE 5 7 - - 2.0 - - - - - - -
03/01:00am 13.7 ENE 5 7 - - 2.0 - - - - - - -
03/12:30am 14.0 NE 4 7 - - 2.0 - - - - - - -
03/12:00am 14.2 NE 5 7 - - 2.0 - - - - - - -
 
Date/Time
WST
Temp

°C
Wind Pressure Rain
since 9am
mm
Weather Cloud Vis
km
Sea
Height
m
Swell
Dir
 
Speed
knots
Gust
knots
hPa Trend Height
m
Period
s
Dir
02/11:30pm 14.2 NE 4 7 - - 2.0 - - - - - - -
02/11:00pm 14.4 NE 3 5 - - 2.0 - - - - - - -
02/10:30pm 14.9 NNE 4 7 - - 2.0 - - - - - - -
02/10:00pm 15.0 NNE 5 7 - - 2.0 - - - - - - -
02/09:30pm 15.4 N 4 7 - - 2.0 - - - - - - -
02/09:00pm 15.4 N 5 7 - - 1.8 - - - - - - -
02/08:30pm 15.7 N 6 9 - - 1.8 - - - - - - -
02/08:00pm 15.9 N 5 11 - - 1.8 - - - - - - -
02/07:30pm 16.3 N 8 12 - - 1.4 - - - - - - -
02/07:00pm 15.8 NNE 4 6 - - 1.4 - - - - - - -
02/06:30pm 16.0 NE 6 8 - - 1.2 - - - - - - -
02/06:00pm 16.8 N 4 6 - - 1.0 Rain - - - - - -
02/05:30pm 16.6 N 6 7 - - 0.8 - - - - - - -
02/05:00pm 16.6 N 4 5 - - 0.8 - - - - - - -
02/04:30pm 18.0 N 6 9 - - 0.4 - - - - - - -
02/04:00pm 19.0 NNW 4 6 - - 0.4 - - - - - - -
02/03:30pm 19.7 NNW 6 8 - - 0.4 - - - - - - -
02/03:00pm 22.0 N 5 9 - - 0.4 - - - - - - -
02/02:30pm 21.4 N 6 11 - - 0.4 - - - - - - -
02/02:00pm 19.7 NNE 5 10 - - 0.4 - - - - - - -
02/01:30pm 20.0 NNE 5 8 - - 0.4 - - - - - - -
02/01:00pm 17.8 NE 5 9 - - 0.4 - - - - - - -
02/12:30pm 17.1 NE 8 13 - - 0.4 - - - - - - -
02/12:00pm 17.7 NE 6 11 - - 0.2 - - - - - - -
02/11:30am 17.0 ENE 7 12 - - 0.2 - - - - - - -
02/11:00am 16.2 ENE 7 10 - - 0.2 - - - - - - -
02/10:30am 14.9 ENE 8 12 - - 0.2 - - - - - - -
02/10:00am 15.4 ENE 8 12 - - 0.2 - - - - - - -
02/09:30am 15.2 ENE 9 13 - - 0.2 - - - - - - -
02/09:00am 15.0 ENE 9 13 - - 2.0 - - - - - - -
02/08:30am 14.7 ENE 9 14 - - 2.0 - - - - - - -

Other Formats:

Comma delimited format used in spreadsheet applications
http://www.bom.gov.au/fwo/IDW60701/IDW60701.94614.axf

JavaScript Object Notation format (JSON) in row-major order
http://www.bom.gov.au/fwo/IDW60701/IDW60701.94614.json